Flight Track Log - Related Links

Times and Time Zones

All times are in EST time to prevent confusion due to time zone crossing. See the ASQ5685 flight status page for this flight to view local times or setup timezone preferences in your user account.

Time Position Orientation Groundspeed Altitude Reporting Facility
EST Latitude Longitude Course Direction KTS km/h meters Rate Location/Type
Wed 09:47:34 33.6167 -84.5167 76° East 233 431 1,128  Level Atlanta TRACON
Wed 09:48:34 33.5833 -84.5833 239° Southwest 265 491 2,134 898 Climbing Atlanta TRACON
Wed 09:49:00 33.9026 -84.1117 54° Northeast  Level Estimated
Wed 09:49:28 33.5000 -84.5833 180° South 281 520 2,835  Level Atlanta TRACON
Wed 09:50:00 33.9910 -84.0059 48° Northeast  Level Estimated
Wed 09:50:01 33.4758 -84.5717 158° South 308 570 3,139  Level Atlanta Center
Wed 09:51:00 34.0794 -83.8998 53° Northeast  Level Estimated
Wed 09:51:01 33.4575 -84.4644 102° East 358 663 3,536  Level Atlanta Center
Wed 09:52:00 34.1098 -83.7539 76° East  Level FlightAware Approximate
Wed 09:52:01 33.4578 -84.3425 90° East 386 715 3,993  Level Atlanta Center
Wed 09:53:00 33.5122 -84.2406 57° Northeast 347 642 4,359 411 Climbing Atlanta Center
Wed 09:54:01 33.6083 -84.1761 29° Northeast 361 668 4,816 518 Climbing Atlanta Center
Wed 09:55:00 33.7086 -84.1136 27° Northeast 390 723 5,395 446 Climbing Atlanta Center
Wed 09:56:00 33.7817 -84.0014 52° Northeast 400 740 5,700 259 Climbing Atlanta Center
Wed 09:57:00 33.8464 -83.8761 58° Northeast 430 797 5,913 290 Climbing Atlanta Center
Wed 09:58:00 33.9128 -83.7458 58° Northeast 456 845 6,279 396 Climbing Atlanta Center
Wed 09:59:00 33.9958 -83.6078 54° Northeast 456 845 6,706 347 Climbing Atlanta Center
Wed 10:00:01 34.0728 -83.4847 53° Northeast 456 845 6,980 227 Climbing Atlanta Center
Wed 10:01:01 34.1556 -83.3586 52° Northeast 466 863 7,163 184 Climbing Atlanta Center
Wed 10:02:00 34.2361 -83.2272 53° Northeast 475 880 7,346 259 Climbing Atlanta Center
Wed 10:03:01 34.3186 -83.0931 53° Northeast 488 904 7,681 347 Climbing Atlanta Center
Wed 10:04:01 34.3989 -82.9589 54° Northeast 488 904 8,047 307 Climbing Atlanta Center
Wed 10:05:00 34.4811 -82.8317 52° Northeast 485 898 8,291 229 Climbing Atlanta Center
Wed 10:06:01 34.5633 -82.6994 53° Northeast 490 908 8,504 181 Climbing Atlanta Center
Wed 10:07:01 34.6392 -82.5769 53° Northeast 485 898 8,656 152 Climbing Atlanta Center
Wed 10:08:01 34.7208 -82.4417 54° Northeast 485 898 8,809 152 Climbing Atlanta Center
Wed 10:09:01 34.8067 -82.3058 52° Northeast 496 919 8,961 152 Climbing Atlanta Center
Wed 10:10:01 34.8983 -82.1494 54° Northeast 504 933 9,114 154 Climbing Atlanta Center
Wed 10:11:00 34.9839 -82.0158 52° Northeast 509 943 9,266 154 Climbing Atlanta Center
Wed 10:12:00 35.0589 -81.8844 55° Northeast 515 954 9,418 91 Climbing Atlanta Center
Wed 10:13:01 35.1375 -81.7353 57° Northeast 521 966 9,449 15 Climbing Atlanta Center
Wed 10:14:01 35.2181 -81.5803 58° Northeast 526 974 9,449  Level Atlanta Center
Wed 10:15:01 35.3003 -81.4253 57° Northeast 537 995 9,449  Level Atlanta Center
Wed 10:16:00 35.3822 -81.2647 58° Northeast 542 1004 9,449  Level Atlanta Center
Wed 10:17:00 35.4661 -81.1039 57° Northeast 553 1024 9,449  Level Atlanta Center
Wed 10:18:01 35.5519 -80.9425 57° Northeast 559 1035 9,449  Level Atlanta Center
Wed 10:19:01 35.6353 -80.7783 58° Northeast 559 1035 9,449  Level Atlanta Center
Wed 10:20:00 35.7206 -80.6164 57° Northeast 559 1035 9,449  Level Atlanta Center
Wed 10:21:01 35.8056 -80.4489 58° Northeast 564 1044 9,449  Level Atlanta Center
Wed 10:22:01 35.8903 -80.2836 58° Northeast 564 1044 9,449  Level Atlanta Center
Wed 10:23:01 35.9783 -80.1025 59° Northeast 564 1044 9,449  Level Atlanta Center
Wed 10:25:24 36.1933 -79.7203 55° Northeast 561 1040 9,449  Level Washington Center
Wed 10:26:25 36.2844 -79.5575 55° Northeast 566 1048 9,449 -45 Level Washington Center
Wed 10:27:26 36.3772 -79.3997 54° Northeast 571 1057 9,357 -120 Descending Washington Center
Wed 10:28:27 36.4658 -79.2336 56° Northeast 565 1046 9,205 -403 Descending Washington Center
Wed 10:29:24 36.5558 -79.0803 54° Northeast 565 1046 8,565 -651 Descending Washington Center
Wed 10:30:25 36.6417 -78.9261 55° Northeast 555 1028 7,925 -465 Descending Washington Center
Wed 10:31:26 36.7208 -78.7739 57° Northeast 543 1006 7,620 -154 Descending Washington Center
Wed 10:32:24 36.7933 -78.6422 55° Northeast 524 970 7,620  Level Washington Center
Wed 10:33:25 36.8764 -78.4897 56° Northeast 519 961 7,620  Level Washington Center
Wed 10:34:26 36.9592 -78.3394 55° Northeast 519 961 7,620  Level Washington Center
Wed 10:35:24 37.0500 -78.1942 52° Northeast 519 961 7,620 -170 Level Washington Center
Wed 10:36:24 37.1708 -78.1072 30° Northeast 494 914 7,285 -333 Descending Washington Center
Wed 10:37:25 37.2894 -78.0169 31° Northeast 494 914 6,949 -287 Descending Washington Center
Wed 10:38:25 37.3975 -77.9289 33° Northeast 487 901 6,706 -121 Descending Washington Center
Wed 10:39:26 37.5161 -77.8383 31° Northeast 472 874 6,706 -136 Level Washington Center
Wed 10:40:26 37.6322 -77.7683 26° Northeast 458 848 6,431 -543 Descending Washington Center
Wed 10:41:24 37.7500 -77.7008 24° Northeast 458 848 5,639 -738 Descending Washington Center
Wed 10:42:25 37.8575 -77.6406 24° Northeast 438 811 4,968 -620 Descending Washington Center
Wed 10:43:25 37.9481 -77.5825 27° Northeast 405 750 4,389 -604 Descending Washington Center
Wed 10:44:26 38.0325 -77.5319 25° Northeast 354 655 3,749 -635 Descending Washington Center
Wed 10:45:26 38.1144 -77.4894 22° Northeast 327 605 3,109 -341 Descending Washington Center
Wed 10:46:24 38.1944 -77.4411 25° Northeast 317 587 3,078 -16 Descending Washington Center
Wed 10:47:24 38.2744 -77.3928 25° Northeast 312 578 3,078 -106 Level Washington Center
Wed 10:48:25 38.3519 -77.3603 18° North 307 568 2,865 -272 Descending Washington Center
Wed 10:49:25 38.4292 -77.3622 359° North 279 517 2,530 -351 Descending Washington Center
Wed 10:50:25 38.5022 -77.3639 359° North 272 504 2,164 -363 Descending Washington Center
Wed 10:51:26 38.5731 -77.3683 357° North 261 483 1,798 -384 Descending Washington Center
Wed 10:52:24 38.6397 -77.3644 North 250 463 1,402 -277 Descending Washington Center
Wed 10:53:25 38.7106 -77.3608 North 245 454 1,250 -89 Descending Washington Center
Wed 10:54:27 38.7833 -77.3500 North 254 470 1,219 -75 Descending Potomac TRACON
Wed 10:55:27 38.8667 -77.3500 360° North 244 452 1,097 -152 Descending Potomac TRACON
Wed 10:56:27 38.9333 -77.3500 360° North 258 478 914 -96 Descending Potomac TRACON
Wed 10:57:21 39.0000 -77.3500 360° North 254 470 914  Level Potomac TRACON
Wed 10:58:22 39.0667 -77.3500 360° North 246 455 914  Level Potomac TRACON
Wed 10:59:22 39.1167 -77.3667 346° North 211 391 914 -121 Level Potomac TRACON
Wed 11:00:23 39.0833 -77.4000 218° Southwest 201 372 671 -151 Descending Potomac TRACON
Wed 11:01:23 39.0500 -77.4333 218° Southwest 166 307 610 -137 Descending Potomac TRACON
Wed 11:02:23 39.0000 -77.4333 180° South 147 272 396 -227 Descending Potomac TRACON
Wed 11:03:24 38.9667 -77.4333 180° South 129 238 152 -240 Descending Potomac TRACON
Wed 11:05:00 38.9474 -77.4599 191° South  Level Estimated
Wed 11:12:00 38.9474 -77.4599 191° South  Level Estimated

Login

Don't have an account? Register now (free) for customized features, flight alerts, and more!